sensor_id;sensor_type;location;lat;lon;timestamp;P1;durP1;ratioP1;P2;durP2;ratioP2
2548;SDS011;1284;53.520;10.248;2022-11-20T00:01:05;1.83;;;1.40;;
2548;SDS011;1284;53.520;10.248;2022-11-20T00:03:32;3.67;;;1.80;;
2548;SDS011;1284;53.520;10.248;2022-11-20T00:06:01;2.20;;;1.42;;
2548;SDS011;1284;53.520;10.248;2022-11-20T00:08:28;1.35;;;1.25;;
2548;SDS011;1284;53.520;10.248;2022-11-20T00:10:54;5.15;;;1.95;;
2548;SDS011;1284;53.520;10.248;2022-11-20T00:13:19;2.20;;;1.35;;
2548;SDS011;1284;53.520;10.248;2022-11-20T00:15:44;2.55;;;1.88;;
2548;SDS011;1284;53.520;10.248;2022-11-20T00:18:10;2.00;;;1.55;;
2548;SDS011;1284;53.520;10.248;2022-11-20T00:20:35;0.93;;;0.93;;
2548;SDS011;1284;53.520;10.248;2022-11-20T00:23:01;1.92;;;1.60;;
2548;SDS011;1284;53.520;10.248;2022-11-20T00:25:26;1.85;;;1.20;;
2548;SDS011;1284;53.520;10.248;2022-11-20T00:27:52;2.10;;;1.30;;
2548;SDS011;1284;53.520;10.248;2022-11-20T00:30:17;0.73;;;0.73;;
2548;SDS011;1284;53.520;10.248;2022-11-20T00:32:43;1.23;;;1.05;;
2548;SDS011;1284;53.520;10.248;2022-11-20T00:35:08;2.33;;;1.23;;
2548;SDS011;1284;53.520;10.248;2022-11-20T00:37:34;1.52;;;1.20;;
2548;SDS011;1284;53.520;10.248;2022-11-20T00:39:59;1.27;;;1.17;;
2548;SDS011;1284;53.520;10.248;2022-11-20T00:42:24;1.58;;;1.42;;
2548;SDS011;1284;53.520;10.248;2022-11-20T00:44:50;1.85;;;1.20;;
2548;SDS011;1284;53.520;10.248;2022-11-20T00:47:15;1.23;;;1.13;;
2548;SDS011;1284;53.520;10.248;2022-11-20T00:49:41;3.58;;;1.30;;
2548;SDS011;1284;53.520;10.248;2022-11-20T00:52:06;1.52;;;1.20;;
2548;SDS011;1284;53.520;10.248;2022-11-20T00:54:34;1.55;;;1.38;;
2548;SDS011;1284;53.520;10.248;2022-11-20T00:57:00;2.80;;;1.58;;
2548;SDS011;1284;53.520;10.248;2022-11-20T00:59:25;2.90;;;1.52;;
2548;SDS011;1284;53.520;10.248;2022-11-20T01:01:51;5.00;;;1.60;;
2548;SDS011;1284;53.520;10.248;2022-11-20T01:04:16;1.38;;;1.27;;
2548;SDS011;1284;53.520;10.248;2022-11-20T01:06:41;2.10;;;1.63;;
2548;SDS011;1284;53.520;10.248;2022-11-20T01:09:11;1.48;;;1.20;;
2548;SDS011;1284;53.520;10.248;2022-11-20T01:11:39;1.58;;;1.27;;
2548;SDS011;1284;53.520;10.248;2022-11-20T01:14:07;1.65;;;1.23;;
2548;SDS011;1284;53.520;10.248;2022-11-20T01:16:37;1.60;;;1.40;;
2548;SDS011;1284;53.520;10.248;2022-11-20T01:19:06;2.50;;;1.90;;
2548;SDS011;1284;53.520;10.248;2022-11-20T01:21:35;2.30;;;1.20;;
2548;SDS011;1284;53.520;10.248;2022-11-20T01:24:02;2.65;;;0.90;;
2548;SDS011;1284;53.520;10.248;2022-11-20T01:26:30;1.55;;;1.25;;
2548;SDS011;1284;53.520;10.248;2022-11-20T01:28:57;4.43;;;1.50;;
2548;SDS011;1284;53.520;10.248;2022-11-20T01:31:24;1.67;;;1.38;;
2548;SDS011;1284;53.520;10.248;2022-11-20T01:33:53;2.63;;;1.33;;
2548;SDS011;1284;53.520;10.248;2022-11-20T01:36:21;1.30;;;1.20;;
2548;SDS011;1284;53.520;10.248;2022-11-20T01:38:47;1.77;;;1.27;;
2548;SDS011;1284;53.520;10.248;2022-11-20T01:41:17;9.77;;;1.75;;
2548;SDS011;1284;53.520;10.248;2022-11-20T01:44:09;1.23;;;1.13;;
2548;SDS011;1284;53.520;10.248;2022-11-20T01:46:36;1.90;;;1.23;;
2548;SDS011;1284;53.520;10.248;2022-11-20T01:49:11;1.45;;;1.20;;
2548;SDS011;1284;53.520;10.248;2022-11-20T01:51:52;1.52;;;1.10;;
2548;SDS011;1284;53.520;10.248;2022-11-20T01:57:14;1.30;;;1.20;;
2548;SDS011;1284;53.520;10.248;2022-11-20T01:59:44;2.75;;;1.85;;
2548;SDS011;1284;53.520;10.248;2022-11-20T02:02:18;1.88;;;1.52;;
2548;SDS011;1284;53.520;10.248;2022-11-20T02:04:44;1.88;;;1.73;;
2548;SDS011;1284;53.520;10.248;2022-11-20T02:07:10;5.07;;;1.67;;
2548;SDS011;1284;53.520;10.248;2022-11-20T02:09:35;5.28;;;1.50;;
2548;SDS011;1284;53.520;10.248;2022-11-20T02:12:01;2.05;;;1.52;;
2548;SDS011;1284;53.520;10.248;2022-11-20T02:14:27;2.75;;;1.67;;
2548;SDS011;1284;53.520;10.248;2022-11-20T02:16:54;2.25;;;1.65;;
2548;SDS011;1284;53.520;10.248;2022-11-20T02:19:27;1.70;;;1.30;;
2548;SDS011;1284;53.520;10.248;2022-11-20T02:22:08;1.10;;;1.08;;
2548;SDS011;1284;53.520;10.248;2022-11-20T02:24:39;1.42;;;1.23;;
2548;SDS011;1284;53.520;10.248;2022-11-20T02:27:10;2.85;;;1.42;;
2548;SDS011;1284;53.520;10.248;2022-11-20T02:29:45;3.00;;;1.85;;
2548;SDS011;1284;53.520;10.248;2022-11-20T02:34:47;3.00;;;1.40;;
2548;SDS011;1284;53.520;10.248;2022-11-20T02:37:12;1.63;;;1.45;;
2548;SDS011;1284;53.520;10.248;2022-11-20T02:39:39;1.00;;;1.00;;
2548;SDS011;1284;53.520;10.248;2022-11-20T02:42:05;2.88;;;2.28;;
2548;SDS011;1284;53.520;10.248;2022-11-20T02:44:31;1.33;;;1.23;;
2548;SDS011;1284;53.520;10.248;2022-11-20T02:46:57;2.17;;;1.45;;
2548;SDS011;1284;53.520;10.248;2022-11-20T02:49:23;2.63;;;1.60;;
2548;SDS011;1284;53.520;10.248;2022-11-20T02:51:49;1.55;;;1.45;;
2548;SDS011;1284;53.520;10.248;2022-11-20T02:54:14;1.80;;;1.40;;
2548;SDS011;1284;53.520;10.248;2022-11-20T02:56:43;2.58;;;1.70;;
2548;SDS011;1284;53.520;10.248;2022-11-20T02:59:09;1.98;;;1.20;;
2548;SDS011;1284;53.520;10.248;2022-11-20T03:01:35;2.05;;;1.42;;
2548;SDS011;1284;53.520;10.248;2022-11-20T03:04:00;1.70;;;1.27;;
2548;SDS011;1284;53.520;10.248;2022-11-20T03:06:26;1.83;;;1.40;;
2548;SDS011;1284;53.520;10.248;2022-11-20T03:08:51;1.50;;;1.40;;
2548;SDS011;1284;53.520;10.248;2022-11-20T03:11:17;4.20;;;1.75;;
2548;SDS011;1284;53.520;10.248;2022-11-20T03:13:42;2.42;;;1.33;;
2548;SDS011;1284;53.520;10.248;2022-11-20T03:16:09;6.18;;;1.73;;
2548;SDS011;1284;53.520;10.248;2022-11-20T03:18:38;1.98;;;1.40;;
2548;SDS011;1284;53.520;10.248;2022-11-20T03:21:05;2.13;;;1.42;;
2548;SDS011;1284;53.520;10.248;2022-11-20T03:23:31;4.75;;;1.38;;
2548;SDS011;1284;53.520;10.248;2022-11-20T03:28:53;1.38;;;1.10;;
2548;SDS011;1284;53.520;10.248;2022-11-20T03:31:25;2.03;;;1.60;;
2548;SDS011;1284;53.520;10.248;2022-11-20T03:36:18;2.97;;;1.45;;
2548;SDS011;1284;53.520;10.248;2022-11-20T03:38:44;2.85;;;1.55;;
2548;SDS011;1284;53.520;10.248;2022-11-20T03:41:11;2.42;;;1.65;;
2548;SDS011;1284;53.520;10.248;2022-11-20T03:43:51;1.55;;;1.40;;
2548;SDS011;1284;53.520;10.248;2022-11-20T03:46:18;1.30;;;1.20;;
2548;SDS011;1284;53.520;10.248;2022-11-20T03:48:44;2.78;;;1.60;;
2548;SDS011;1284;53.520;10.248;2022-11-20T03:51:10;2.05;;;1.73;;
2548;SDS011;1284;53.520;10.248;2022-11-20T03:53:37;1.50;;;1.40;;
2548;SDS011;1284;53.520;10.248;2022-11-20T03:56:03;3.40;;;1.70;;
2548;SDS011;1284;53.520;10.248;2022-11-20T03:58:29;2.28;;;1.30;;
2548;SDS011;1284;53.520;10.248;2022-11-20T04:00:54;1.98;;;1.50;;
2548;SDS011;1284;53.520;10.248;2022-11-20T04:03:20;3.33;;;1.58;;
2548;SDS011;1284;53.520;10.248;2022-11-20T04:05:45;2.80;;;1.92;;
2548;SDS011;1284;53.520;10.248;2022-11-20T04:08:10;2.47;;;1.25;;
2548;SDS011;1284;53.520;10.248;2022-11-20T04:10:36;1.58;;;1.48;;
2548;SDS011;1284;53.520;10.248;2022-11-20T04:13:01;2.25;;;1.60;;
2548;SDS011;1284;53.520;10.248;2022-11-20T04:15:27;1.23;;;1.02;;
2548;SDS011;1284;53.520;10.248;2022-11-20T04:17:53;2.30;;;1.77;;
2548;SDS011;1284;53.520;10.248;2022-11-20T04:20:19;1.38;;;1.27;;
2548;SDS011;1284;53.520;10.248;2022-11-20T04:22:44;4.25;;;1.70;;
2548;SDS011;1284;53.520;10.248;2022-11-20T04:25:10;1.42;;;1.33;;
2548;SDS011;1284;53.520;10.248;2022-11-20T04:27:35;1.52;;;1.17;;
2548;SDS011;1284;53.520;10.248;2022-11-20T04:30:01;3.17;;;2.03;;
2548;SDS011;1284;53.520;10.248;2022-11-20T04:32:26;1.42;;;1.33;;
2548;SDS011;1284;53.520;10.248;2022-11-20T04:34:51;4.38;;;1.77;;
2548;SDS011;1284;53.520;10.248;2022-11-20T04:37:17;1.77;;;1.58;;
2548;SDS011;1284;53.520;10.248;2022-11-20T04:39:42;2.67;;;1.50;;
2548;SDS011;1284;53.520;10.248;2022-11-20T04:42:08;3.35;;;2.03;;
2548;SDS011;1284;53.520;10.248;2022-11-20T04:44:53;1.35;;;1.10;;
2548;SDS011;1284;53.520;10.248;2022-11-20T04:47:18;1.48;;;1.38;;
2548;SDS011;1284;53.520;10.248;2022-11-20T04:49:44;4.88;;;1.40;;
2548;SDS011;1284;53.520;10.248;2022-11-20T04:52:09;1.70;;;1.55;;
2548;SDS011;1284;53.520;10.248;2022-11-20T04:54:34;2.00;;;1.35;;
2548;SDS011;1284;53.520;10.248;2022-11-20T04:57:00;1.38;;;1.20;;
2548;SDS011;1284;53.520;10.248;2022-11-20T04:59:25;4.80;;;1.83;;
2548;SDS011;1284;53.520;10.248;2022-11-20T05:01:51;2.25;;;1.33;;
2548;SDS011;1284;53.520;10.248;2022-11-20T05:04:16;3.90;;;1.42;;
2548;SDS011;1284;53.520;10.248;2022-11-20T05:06:41;1.90;;;1.48;;
2548;SDS011;1284;53.520;10.248;2022-11-20T05:09:07;1.70;;;1.58;;
2548;SDS011;1284;53.520;10.248;2022-11-20T05:11:32;1.38;;;1.27;;
2548;SDS011;1284;53.520;10.248;2022-11-20T05:13:58;2.63;;;1.27;;
2548;SDS011;1284;53.520;10.248;2022-11-20T05:16:25;1.50;;;1.40;;
2548;SDS011;1284;53.520;10.248;2022-11-20T05:18:50;2.50;;;1.67;;
2548;SDS011;1284;53.520;10.248;2022-11-20T05:21:17;2.95;;;1.73;;
2548;SDS011;1284;53.520;10.248;2022-11-20T05:23:43;1.58;;;1.35;;
2548;SDS011;1284;53.520;10.248;2022-11-20T05:26:28;1.85;;;1.42;;
2548;SDS011;1284;53.520;10.248;2022-11-20T05:28:53;2.20;;;1.73;;
2548;SDS011;1284;53.520;10.248;2022-11-20T05:31:19;1.30;;;1.20;;
2548;SDS011;1284;53.520;10.248;2022-11-20T05:33:46;4.80;;;1.80;;
2548;SDS011;1284;53.520;10.248;2022-11-20T05:36:12;2.03;;;1.55;;
2548;SDS011;1284;53.520;10.248;2022-11-20T05:38:39;2.25;;;1.77;;
2548;SDS011;1284;53.520;10.248;2022-11-20T05:41:16;1.92;;;1.70;;
2548;SDS011;1284;53.520;10.248;2022-11-20T05:43:43;4.95;;;2.13;;
2548;SDS011;1284;53.520;10.248;2022-11-20T05:46:11;2.65;;;2.00;;
2548;SDS011;1284;53.520;10.248;2022-11-20T05:48:39;1.75;;;1.65;;
2548;SDS011;1284;53.520;10.248;2022-11-20T05:51:06;1.60;;;1.50;;
2548;SDS011;1284;53.520;10.248;2022-11-20T05:53:33;3.58;;;1.48;;
2548;SDS011;1284;53.520;10.248;2022-11-20T05:56:00;2.03;;;1.50;;
2548;SDS011;1284;53.520;10.248;2022-11-20T05:58:28;2.20;;;1.50;;
2548;SDS011;1284;53.520;10.248;2022-11-20T06:00:54;1.65;;;1.25;;
2548;SDS011;1284;53.520;10.248;2022-11-20T06:03:27;1.58;;;1.42;;
2548;SDS011;1284;53.520;10.248;2022-11-20T06:05:53;1.48;;;1.20;;
2548;SDS011;1284;53.520;10.248;2022-11-20T06:08:18;3.97;;;1.63;;
2548;SDS011;1284;53.520;10.248;2022-11-20T06:10:44;1.67;;;1.20;;
2548;SDS011;1284;53.520;10.248;2022-11-20T06:13:09;1.77;;;1.42;;
2548;SDS011;1284;53.520;10.248;2022-11-20T06:15:35;1.70;;;1.60;;
2548;SDS011;1284;53.520;10.248;2022-11-20T06:18:03;1.60;;;1.50;;
2548;SDS011;1284;53.520;10.248;2022-11-20T06:20:28;2.72;;;2.28;;
2548;SDS011;1284;53.520;10.248;2022-11-20T06:22:54;1.88;;;1.38;;
2548;SDS011;1284;53.520;10.248;2022-11-20T06:25:19;2.80;;;1.98;;
2548;SDS011;1284;53.520;10.248;2022-11-20T06:27:45;3.03;;;2.05;;
2548;SDS011;1284;53.520;10.248;2022-11-20T06:30:10;2.35;;;1.98;;
2548;SDS011;1284;53.520;10.248;2022-11-20T06:32:36;3.95;;;2.45;;
2548;SDS011;1284;53.520;10.248;2022-11-20T06:35:02;4.22;;;1.92;;
2548;SDS011;1284;53.520;10.248;2022-11-20T06:37:27;1.90;;;1.73;;
2548;SDS011;1284;53.520;10.248;2022-11-20T06:39:53;4.43;;;1.60;;
2548;SDS011;1284;53.520;10.248;2022-11-20T06:42:18;2.25;;;2.08;;
2548;SDS011;1284;53.520;10.248;2022-11-20T06:44:44;5.45;;;2.08;;
2548;SDS011;1284;53.520;10.248;2022-11-20T06:47:09;4.30;;;2.45;;
2548;SDS011;1284;53.520;10.248;2022-11-20T06:49:34;2.92;;;2.25;;
2548;SDS011;1284;53.520;10.248;2022-11-20T06:52:02;2.22;;;1.88;;
2548;SDS011;1284;53.520;10.248;2022-11-20T06:54:27;2.20;;;1.95;;
2548;SDS011;1284;53.520;10.248;2022-11-20T06:56:53;2.35;;;1.55;;
2548;SDS011;1284;53.520;10.248;2022-11-20T06:59:18;3.33;;;2.00;;
2548;SDS011;1284;53.520;10.248;2022-11-20T07:01:43;4.20;;;2.20;;
2548;SDS011;1284;53.520;10.248;2022-11-20T07:04:09;2.10;;;1.75;;
2548;SDS011;1284;53.520;10.248;2022-11-20T07:06:34;4.00;;;1.85;;
2548;SDS011;1284;53.520;10.248;2022-11-20T07:09:00;2.20;;;2.00;;
2548;SDS011;1284;53.520;10.248;2022-11-20T07:11:26;3.42;;;2.40;;
2548;SDS011;1284;53.520;10.248;2022-11-20T07:13:52;3.97;;;2.10;;
2548;SDS011;1284;53.520;10.248;2022-11-20T07:16:17;4.20;;;1.88;;
2548;SDS011;1284;53.520;10.248;2022-11-20T07:18:43;4.03;;;1.98;;
2548;SDS011;1284;53.520;10.248;2022-11-20T07:21:09;3.05;;;2.22;;
2548;SDS011;1284;53.520;10.248;2022-11-20T07:23:35;3.75;;;2.25;;
2548;SDS011;1284;53.520;10.248;2022-11-20T07:26:05;4.03;;;1.95;;
2548;SDS011;1284;53.520;10.248;2022-11-20T07:28:32;5.22;;;2.42;;
2548;SDS011;1284;53.520;10.248;2022-11-20T07:30:57;4.55;;;2.65;;
2548;SDS011;1284;53.520;10.248;2022-11-20T07:33:23;4.78;;;2.42;;
2548;SDS011;1284;53.520;10.248;2022-11-20T07:35:48;6.88;;;3.13;;
2548;SDS011;1284;53.520;10.248;2022-11-20T07:38:13;6.80;;;3.47;;
2548;SDS011;1284;53.520;10.248;2022-11-20T07:40:39;3.97;;;2.58;;
2548;SDS011;1284;53.520;10.248;2022-11-20T07:43:04;6.32;;;3.42;;
2548;SDS011;1284;53.520;10.248;2022-11-20T07:45:30;5.55;;;2.70;;
2548;SDS011;1284;53.520;10.248;2022-11-20T07:47:55;4.93;;;2.47;;
2548;SDS011;1284;53.520;10.248;2022-11-20T07:50:21;4.97;;;3.08;;
2548;SDS011;1284;53.520;10.248;2022-11-20T07:52:46;5.70;;;2.65;;
2548;SDS011;1284;53.520;10.248;2022-11-20T07:55:12;3.75;;;2.58;;
2548;SDS011;1284;53.520;10.248;2022-11-20T07:57:38;5.57;;;3.17;;
2548;SDS011;1284;53.520;10.248;2022-11-20T08:00:04;6.55;;;3.47;;
2548;SDS011;1284;53.520;10.248;2022-11-20T08:02:37;2.90;;;2.17;;
2548;SDS011;1284;53.520;10.248;2022-11-20T08:05:07;5.00;;;2.75;;
2548;SDS011;1284;53.520;10.248;2022-11-20T08:07:39;4.30;;;2.65;;
2548;SDS011;1284;53.520;10.248;2022-11-20T08:10:06;2.33;;;2.03;;
2548;SDS011;1284;53.520;10.248;2022-11-20T08:12:33;3.42;;;2.42;;
2548;SDS011;1284;53.520;10.248;2022-11-20T08:15:17;3.75;;;2.20;;
2548;SDS011;1284;53.520;10.248;2022-11-20T08:17:43;3.58;;;2.60;;
2548;SDS011;1284;53.520;10.248;2022-11-20T08:20:09;4.30;;;2.30;;
2548;SDS011;1284;53.520;10.248;2022-11-20T08:22:34;2.63;;;1.88;;
2548;SDS011;1284;53.520;10.248;2022-11-20T08:25:00;4.60;;;2.00;;
2548;SDS011;1284;53.520;10.248;2022-11-20T08:27:25;3.58;;;2.10;;
2548;SDS011;1284;53.520;10.248;2022-11-20T08:29:51;6.30;;;2.88;;
2548;SDS011;1284;53.520;10.248;2022-11-20T08:32:16;2.70;;;2.40;;
2548;SDS011;1284;53.520;10.248;2022-11-20T08:34:42;4.72;;;3.30;;
2548;SDS011;1284;53.520;10.248;2022-11-20T08:37:07;5.18;;;2.55;;
2548;SDS011;1284;53.520;10.248;2022-11-20T08:39:33;5.30;;;2.72;;
2548;SDS011;1284;53.520;10.248;2022-11-20T08:41:58;4.15;;;2.78;;
2548;SDS011;1284;53.520;10.248;2022-11-20T08:44:24;5.35;;;2.90;;
2548;SDS011;1284;53.520;10.248;2022-11-20T08:46:49;4.63;;;3.08;;
2548;SDS011;1284;53.520;10.248;2022-11-20T08:49:15;4.38;;;2.47;;
2548;SDS011;1284;53.520;10.248;2022-11-20T08:51:41;3.90;;;2.15;;
2548;SDS011;1284;53.520;10.248;2022-11-20T08:54:06;4.45;;;2.03;;
2548;SDS011;1284;53.520;10.248;2022-11-20T08:56:33;2.85;;;1.98;;
2548;SDS011;1284;53.520;10.248;2022-11-20T08:58:59;3.35;;;2.03;;
2548;SDS011;1284;53.520;10.248;2022-11-20T09:01:25;3.60;;;2.40;;
2548;SDS011;1284;53.520;10.248;2022-11-20T09:03:51;4.82;;;2.13;;
2548;SDS011;1284;53.520;10.248;2022-11-20T09:06:16;4.90;;;2.05;;
2548;SDS011;1284;53.520;10.248;2022-11-20T09:08:43;3.28;;;1.92;;
2548;SDS011;1284;53.520;10.248;2022-11-20T09:11:09;4.05;;;2.17;;
2548;SDS011;1284;53.520;10.248;2022-11-20T09:13:35;2.78;;;1.70;;
2548;SDS011;1284;53.520;10.248;2022-11-20T09:16:02;3.33;;;1.85;;
2548;SDS011;1284;53.520;10.248;2022-11-20T09:18:33;3.40;;;1.58;;
2548;SDS011;1284;53.520;10.248;2022-11-20T09:21:03;2.50;;;1.50;;
2548;SDS011;1284;53.520;10.248;2022-11-20T09:23:31;1.83;;;1.42;;
2548;SDS011;1284;53.520;10.248;2022-11-20T09:26:20;2.67;;;1.67;;
2548;SDS011;1284;53.520;10.248;2022-11-20T09:28:44;2.55;;;1.60;;
2548;SDS011;1284;53.520;10.248;2022-11-20T09:31:21;1.92;;;1.50;;
2548;SDS011;1284;53.520;10.248;2022-11-20T09:33:49;1.75;;;1.20;;
2548;SDS011;1284;53.520;10.248;2022-11-20T09:36:14;2.00;;;1.77;;
2548;SDS011;1284;53.520;10.248;2022-11-20T09:38:41;1.98;;;1.55;;
2548;SDS011;1284;53.520;10.248;2022-11-20T09:41:14;1.55;;;1.05;;
2548;SDS011;1284;53.520;10.248;2022-11-20T09:43:58;1.63;;;1.33;;
2548;SDS011;1284;53.520;10.248;2022-11-20T09:46:56;1.73;;;1.30;;
2548;SDS011;1284;53.520;10.248;2022-11-20T09:49:53;1.20;;;1.08;;
2548;SDS011;1284;53.520;10.248;2022-11-20T09:52:24;1.48;;;1.38;;
2548;SDS011;1284;53.520;10.248;2022-11-20T09:55:02;1.27;;;1.17;;
2548;SDS011;1284;53.520;10.248;2022-11-20T09:57:32;1.30;;;1.17;;
2548;SDS011;1284;53.520;10.248;2022-11-20T10:00:03;1.77;;;1.50;;
2548;SDS011;1284;53.520;10.248;2022-11-20T10:08:15;1.17;;;1.10;;
2548;SDS011;1284;53.520;10.248;2022-11-20T10:10:49;2.10;;;1.20;;
2548;SDS011;1284;53.520;10.248;2022-11-20T10:23:44;1.70;;;1.25;;
2548;SDS011;1284;53.520;10.248;2022-11-20T10:26:21;3.08;;;1.63;;
2548;SDS011;1284;53.520;10.248;2022-11-20T10:29:02;1.35;;;1.17;;
2548;SDS011;1284;53.520;10.248;2022-11-20T10:31:36;2.63;;;1.50;;
2548;SDS011;1284;53.520;10.248;2022-11-20T10:34:15;1.48;;;1.38;;
2548;SDS011;1284;53.520;10.248;2022-11-20T10:36:49;1.98;;;1.70;;
2548;SDS011;1284;53.520;10.248;2022-11-20T10:39:39;1.77;;;1.08;;
2548;SDS011;1284;53.520;10.248;2022-11-20T10:42:16;1.95;;;1.45;;
2548;SDS011;1284;53.520;10.248;2022-11-20T10:44:51;1.73;;;1.48;;
2548;SDS011;1284;53.520;10.248;2022-11-20T10:47:26;2.22;;;1.75;;
2548;SDS011;1284;53.520;10.248;2022-11-20T10:49:55;1.90;;;1.52;;
2548;SDS011;1284;53.520;10.248;2022-11-20T10:53:13;3.72;;;1.75;;
2548;SDS011;1284;53.520;10.248;2022-11-20T11:00:34;5.20;;;1.27;;
2548;SDS011;1284;53.520;10.248;2022-11-20T11:02:59;1.15;;;1.15;;
2548;SDS011;1284;53.520;10.248;2022-11-20T11:05:33;1.92;;;1.10;;
2548;SDS011;1284;53.520;10.248;2022-11-20T11:08:04;1.55;;;1.45;;
2548;SDS011;1284;53.520;10.248;2022-11-20T11:13:23;1.52;;;1.35;;
2548;SDS011;1284;53.520;10.248;2022-11-20T11:15:51;1.35;;;1.17;;
2548;SDS011;1284;53.520;10.248;2022-11-20T11:18:23;3.33;;;2.17;;
2548;SDS011;1284;53.520;10.248;2022-11-20T11:20:52;1.33;;;1.08;;
2548;SDS011;1284;53.520;10.248;2022-11-20T11:23:30;1.60;;;1.10;;
2548;SDS011;1284;53.520;10.248;2022-11-20T11:26:07;1.77;;;1.25;;
2548;SDS011;1284;53.520;10.248;2022-11-20T11:28:56;1.55;;;1.20;;
2548;SDS011;1284;53.520;10.248;2022-11-20T11:31:28;1.25;;;1.05;;
2548;SDS011;1284;53.520;10.248;2022-11-20T11:34:14;1.38;;;1.27;;
2548;SDS011;1284;53.520;10.248;2022-11-20T11:36:41;1.50;;;1.00;;
2548;SDS011;1284;53.520;10.248;2022-11-20T11:39:16;1.30;;;1.10;;
2548;SDS011;1284;53.520;10.248;2022-11-20T11:41:45;1.50;;;1.40;;
2548;SDS011;1284;53.520;10.248;2022-11-20T11:47:01;1.20;;;1.08;;
2548;SDS011;1284;53.520;10.248;2022-11-20T11:49:28;7.30;;;1.48;;
2548;SDS011;1284;53.520;10.248;2022-11-20T11:54:31;1.00;;;1.00;;
2548;SDS011;1284;53.520;10.248;2022-11-20T11:57:09;1.40;;;1.30;;
2548;SDS011;1284;53.520;10.248;2022-11-20T12:02:18;1.67;;;1.20;;
2548;SDS011;1284;53.520;10.248;2022-11-20T12:04:58;1.13;;;1.10;;
2548;SDS011;1284;53.520;10.248;2022-11-20T12:07:38;1.65;;;0.90;;
2548;SDS011;1284;53.520;10.248;2022-11-20T12:10:13;1.77;;;1.05;;
2548;SDS011;1284;53.520;10.248;2022-11-20T12:12:45;2.67;;;0.80;;
2548;SDS011;1284;53.520;10.248;2022-11-20T12:15:19;1.58;;;1.10;;
2548;SDS011;1284;53.520;10.248;2022-11-20T12:17:50;1.77;;;1.38;;
2548;SDS011;1284;53.520;10.248;2022-11-20T12:20:15;1.98;;;1.25;;
2548;SDS011;1284;53.520;10.248;2022-11-20T12:25:17;1.05;;;1.05;;
2548;SDS011;1284;53.520;10.248;2022-11-20T12:27:50;1.17;;;1.05;;
2548;SDS011;1284;53.520;10.248;2022-11-20T12:30:21;1.13;;;0.88;;
2548;SDS011;1284;53.520;10.248;2022-11-20T12:38:06;2.03;;;1.33;;
2548;SDS011;1284;53.520;10.248;2022-11-20T12:43:45;1.90;;;1.30;;
2548;SDS011;1284;53.520;10.248;2022-11-20T12:46:44;2.13;;;1.20;;
2548;SDS011;1284;53.520;10.248;2022-11-20T12:54:52;2.03;;;1.45;;
2548;SDS011;1284;53.520;10.248;2022-11-20T12:57:37;1.08;;;0.90;;
2548;SDS011;1284;53.520;10.248;2022-11-20T13:00:15;1.00;;;0.88;;
2548;SDS011;1284;53.520;10.248;2022-11-20T13:08:02;1.90;;;1.30;;
2548;SDS011;1284;53.520;10.248;2022-11-20T13:13:21;1.38;;;1.25;;
2548;SDS011;1284;53.520;10.248;2022-11-20T13:18:52;1.58;;;0.70;;
2548;SDS011;1284;53.520;10.248;2022-11-20T13:21:21;1.08;;;1.08;;
2548;SDS011;1284;53.520;10.248;2022-11-20T13:24:06;1.33;;;1.10;;
2548;SDS011;1284;53.520;10.248;2022-11-20T13:26:45;1.77;;;1.20;;
2548;SDS011;1284;53.520;10.248;2022-11-20T13:29:12;1.83;;;1.48;;
2548;SDS011;1284;53.520;10.248;2022-11-20T13:31:45;1.52;;;1.25;;
2548;SDS011;1284;53.520;10.248;2022-11-20T13:34:14;0.80;;;0.80;;
2548;SDS011;1284;53.520;10.248;2022-11-20T13:36:50;1.10;;;0.85;;
2548;SDS011;1284;53.520;10.248;2022-11-20T13:39:28;1.65;;;1.08;;
2548;SDS011;1284;53.520;10.248;2022-11-20T13:42:20;1.23;;;1.02;;
2548;SDS011;1284;53.520;10.248;2022-11-20T13:44:46;2.15;;;1.40;;
2548;SDS011;1284;53.520;10.248;2022-11-20T13:47:26;1.02;;;1.00;;
2548;SDS011;1284;53.520;10.248;2022-11-20T13:49:53;3.08;;;1.30;;
2548;SDS011;1284;53.520;10.248;2022-11-20T13:59:57;1.15;;;1.02;;
2548;SDS011;1284;53.520;10.248;2022-11-20T14:02:27;1.65;;;1.50;;
2548;SDS011;1284;53.520;10.248;2022-11-20T14:04:56;1.30;;;1.20;;
2548;SDS011;1284;53.520;10.248;2022-11-20T14:07:25;2.20;;;1.10;;
2548;SDS011;1284;53.520;10.248;2022-11-20T14:09:56;2.10;;;0.95;;
2548;SDS011;1284;53.520;10.248;2022-11-20T14:12:26;1.10;;;1.00;;
2548;SDS011;1284;53.520;10.248;2022-11-20T14:14:56;1.40;;;1.25;;
2548;SDS011;1284;53.520;10.248;2022-11-20T14:17:23;1.67;;;1.13;;
2548;SDS011;1284;53.520;10.248;2022-11-20T14:19:55;2.88;;;1.15;;
2548;SDS011;1284;53.520;10.248;2022-11-20T14:22:25;1.10;;;0.88;;
2548;SDS011;1284;53.520;10.248;2022-11-20T14:25:03;1.10;;;1.00;;
2548;SDS011;1284;53.520;10.248;2022-11-20T14:27:33;1.25;;;1.10;;
2548;SDS011;1284;53.520;10.248;2022-11-20T14:30:01;4.72;;;1.27;;
2548;SDS011;1284;53.520;10.248;2022-11-20T14:32:28;1.55;;;1.45;;
2548;SDS011;1284;53.520;10.248;2022-11-20T14:34:55;1.42;;;1.33;;
2548;SDS011;1284;53.520;10.248;2022-11-20T14:37:28;1.95;;;1.30;;
2548;SDS011;1284;53.520;10.248;2022-11-20T14:39:58;1.25;;;1.15;;
2548;SDS011;1284;53.520;10.248;2022-11-20T14:42:26;2.13;;;1.33;;
2548;SDS011;1284;53.520;10.248;2022-11-20T14:44:55;6.47;;;1.67;;
2548;SDS011;1284;53.520;10.248;2022-11-20T14:47:23;1.30;;;1.20;;
2548;SDS011;1284;53.520;10.248;2022-11-20T14:49:50;2.08;;;1.40;;
2548;SDS011;1284;53.520;10.248;2022-11-20T14:52:19;1.45;;;1.35;;
2548;SDS011;1284;53.520;10.248;2022-11-20T14:54:46;3.60;;;1.75;;
2548;SDS011;1284;53.520;10.248;2022-11-20T14:57:24;1.88;;;1.60;;
2548;SDS011;1284;53.520;10.248;2022-11-20T15:00:18;1.98;;;1.25;;
2548;SDS011;1284;53.520;10.248;2022-11-20T15:02:46;2.35;;;1.45;;
2548;SDS011;1284;53.520;10.248;2022-11-20T15:05:14;2.75;;;1.63;;
2548;SDS011;1284;53.520;10.248;2022-11-20T15:07:41;3.90;;;2.45;;
2548;SDS011;1284;53.520;10.248;2022-11-20T15:12:37;2.55;;;1.50;;
2548;SDS011;1284;53.520;10.248;2022-11-20T15:15:06;2.78;;;1.75;;
2548;SDS011;1284;53.520;10.248;2022-11-20T15:17:37;2.95;;;1.70;;
2548;SDS011;1284;53.520;10.248;2022-11-20T15:20:05;2.45;;;1.50;;
2548;SDS011;1284;53.520;10.248;2022-11-20T15:22:38;1.58;;;1.33;;
2548;SDS011;1284;53.520;10.248;2022-11-20T15:25:10;1.63;;;1.23;;
2548;SDS011;1284;53.520;10.248;2022-11-20T15:27:37;2.22;;;1.35;;
2548;SDS011;1284;53.520;10.248;2022-11-20T15:30:05;1.75;;;1.33;;
2548;SDS011;1284;53.520;10.248;2022-11-20T15:32:42;1.23;;;1.10;;
2548;SDS011;1284;53.520;10.248;2022-11-20T15:35:08;2.33;;;1.40;;
2548;SDS011;1284;53.520;10.248;2022-11-20T15:37:35;3.83;;;1.73;;
2548;SDS011;1284;53.520;10.248;2022-11-20T15:40:01;2.42;;;1.40;;
2548;SDS011;1284;53.520;10.248;2022-11-20T15:42:27;1.23;;;1.08;;
2548;SDS011;1284;53.520;10.248;2022-11-20T15:44:52;1.40;;;1.30;;
2548;SDS011;1284;53.520;10.248;2022-11-20T15:47:24;2.10;;;1.60;;
2548;SDS011;1284;53.520;10.248;2022-11-20T15:49:52;2.38;;;1.38;;
2548;SDS011;1284;53.520;10.248;2022-11-20T15:52:18;2.20;;;1.50;;
2548;SDS011;1284;53.520;10.248;2022-11-20T15:54:43;2.60;;;1.75;;
2548;SDS011;1284;53.520;10.248;2022-11-20T15:57:09;3.92;;;1.70;;
2548;SDS011;1284;53.520;10.248;2022-11-20T15:59:34;2.55;;;1.48;;
2548;SDS011;1284;53.520;10.248;2022-11-20T16:02:14;2.03;;;1.55;;
2548;SDS011;1284;53.520;10.248;2022-11-20T16:04:41;2.72;;;1.42;;
2548;SDS011;1284;53.520;10.248;2022-11-20T16:07:07;2.13;;;1.17;;
2548;SDS011;1284;53.520;10.248;2022-11-20T16:09:32;3.10;;;1.63;;
2548;SDS011;1284;53.520;10.248;2022-11-20T16:11:58;1.52;;;1.27;;
2548;SDS011;1284;53.520;10.248;2022-11-20T16:14:25;2.58;;;1.90;;
2548;SDS011;1284;53.520;10.248;2022-11-20T16:17:12;4.82;;;1.58;;
2548;SDS011;1284;53.520;10.248;2022-11-20T16:19:38;3.22;;;2.33;;
2548;SDS011;1284;53.520;10.248;2022-11-20T16:22:04;3.47;;;2.20;;
2548;SDS011;1284;53.520;10.248;2022-11-20T16:24:29;2.58;;;1.83;;
2548;SDS011;1284;53.520;10.248;2022-11-20T16:26:55;3.38;;;1.73;;
2548;SDS011;1284;53.520;10.248;2022-11-20T16:29:21;2.50;;;1.55;;
2548;SDS011;1284;53.520;10.248;2022-11-20T16:31:46;3.85;;;2.17;;